sensor_id;sensor_type;location;lat;lon;timestamp;P1;durP1;ratioP1;P2;durP2;ratioP2
34405;SDS011;20658;45.630;8.886;2023-04-25T00:01:08;10.18;;;4.43;;
34405;SDS011;20658;45.630;8.886;2023-04-25T00:03:40;9.57;;;4.13;;
34405;SDS011;20658;45.630;8.886;2023-04-25T00:06:13;8.10;;;4.05;;
34405;SDS011;20658;45.630;8.886;2023-04-25T00:08:42;10.27;;;4.38;;
34405;SDS011;20658;45.630;8.886;2023-04-25T00:11:15;9.45;;;3.90;;
34405;SDS011;20658;45.630;8.886;2023-04-25T00:13:48;8.50;;;3.25;;
34405;SDS011;20658;45.630;8.886;2023-04-25T00:16:22;4.70;;;3.20;;
34405;SDS011;20658;45.630;8.886;2023-04-25T00:18:52;5.22;;;3.30;;
34405;SDS011;20658;45.630;8.886;2023-04-25T00:21:25;4.70;;;2.90;;
34405;SDS011;20658;45.630;8.886;2023-04-25T00:23:59;6.80;;;3.03;;
34405;SDS011;20658;45.630;8.886;2023-04-25T00:26:33;6.22;;;3.13;;
34405;SDS011;20658;45.630;8.886;2023-04-25T00:29:07;6.10;;;3.03;;
34405;SDS011;20658;45.630;8.886;2023-04-25T00:31:40;6.50;;;2.90;;
34405;SDS011;20658;45.630;8.886;2023-04-25T00:34:15;5.22;;;3.20;;
34405;SDS011;20658;45.630;8.886;2023-04-25T00:36:49;5.00;;;2.78;;
34405;SDS011;20658;45.630;8.886;2023-04-25T00:39:22;5.47;;;2.90;;
34405;SDS011;20658;45.630;8.886;2023-04-25T00:41:55;5.03;;;2.97;;
34405;SDS011;20658;45.630;8.886;2023-04-25T00:44:30;5.85;;;2.88;;
34405;SDS011;20658;45.630;8.886;2023-04-25T00:47:04;8.65;;;2.67;;
34405;SDS011;20658;45.630;8.886;2023-04-25T00:49:38;5.30;;;2.58;;
34405;SDS011;20658;45.630;8.886;2023-04-25T00:52:07;5.35;;;2.83;;
34405;SDS011;20658;45.630;8.886;2023-04-25T00:54:40;6.95;;;2.90;;
34405;SDS011;20658;45.630;8.886;2023-04-25T00:57:13;6.78;;;2.80;;
34405;SDS011;20658;45.630;8.886;2023-04-25T00:59:47;5.20;;;2.67;;
34405;SDS011;20658;45.630;8.886;2023-04-25T01:02:22;5.70;;;2.67;;
34405;SDS011;20658;45.630;8.886;2023-04-25T01:04:58;6.80;;;2.55;;
34405;SDS011;20658;45.630;8.886;2023-04-25T01:07:32;4.85;;;2.63;;
34405;SDS011;20658;45.630;8.886;2023-04-25T01:10:06;7.15;;;3.08;;
34405;SDS011;20658;45.630;8.886;2023-04-25T01:12:41;8.98;;;3.00;;
34405;SDS011;20658;45.630;8.886;2023-04-25T01:15:14;5.20;;;3.08;;
34405;SDS011;20658;45.630;8.886;2023-04-25T01:17:47;8.18;;;3.17;;
34405;SDS011;20658;45.630;8.886;2023-04-25T01:20:22;5.45;;;2.75;;
34405;SDS011;20658;45.630;8.886;2023-04-25T01:22:52;9.55;;;3.95;;
34405;SDS011;20658;45.630;8.886;2023-04-25T01:25:27;7.75;;;3.42;;
34405;SDS011;20658;45.630;8.886;2023-04-25T01:28:02;10.68;;;4.18;;
34405;SDS011;20658;45.630;8.886;2023-04-25T01:30:31;8.25;;;3.33;;
34405;SDS011;20658;45.630;8.886;2023-04-25T01:33:05;8.30;;;3.45;;
34405;SDS011;20658;45.630;8.886;2023-04-25T01:35:40;8.85;;;3.60;;
34405;SDS011;20658;45.630;8.886;2023-04-25T01:38:15;7.82;;;3.28;;
34405;SDS011;20658;45.630;8.886;2023-04-25T01:40:48;7.40;;;3.03;;
34405;SDS011;20658;45.630;8.886;2023-04-25T01:43:23;6.60;;;3.22;;
34405;SDS011;20658;45.630;8.886;2023-04-25T01:45:57;7.70;;;2.55;;
34405;SDS011;20658;45.630;8.886;2023-04-25T01:48:32;6.97;;;3.05;;
34405;SDS011;20658;45.630;8.886;2023-04-25T01:51:05;9.35;;;3.92;;
34405;SDS011;20658;45.630;8.886;2023-04-25T01:53:40;7.35;;;2.75;;
34405;SDS011;20658;45.630;8.886;2023-04-25T01:56:15;16.25;;;6.03;;
34405;SDS011;20658;45.630;8.886;2023-04-25T01:58:50;10.70;;;5.28;;
34405;SDS011;20658;45.630;8.886;2023-04-25T02:01:29;11.52;;;5.18;;
34405;SDS011;20658;45.630;8.886;2023-04-25T02:04:15;19.88;;;8.52;;
34405;SDS011;20658;45.630;8.886;2023-04-25T02:06:48;8.20;;;4.40;;
34405;SDS011;20658;45.630;8.886;2023-04-25T02:09:18;13.93;;;5.63;;
34405;SDS011;20658;45.630;8.886;2023-04-25T02:11:54;8.82;;;4.75;;
34405;SDS011;20658;45.630;8.886;2023-04-25T02:14:34;15.63;;;6.80;;
34405;SDS011;20658;45.630;8.886;2023-04-25T02:17:14;13.27;;;5.95;;
34405;SDS011;20658;45.630;8.886;2023-04-25T02:19:50;14.15;;;4.82;;
34405;SDS011;20658;45.630;8.886;2023-04-25T02:22:23;10.93;;;5.30;;
34405;SDS011;20658;45.630;8.886;2023-04-25T02:24:59;12.00;;;5.30;;
34405;SDS011;20658;45.630;8.886;2023-04-25T02:27:32;13.27;;;5.35;;
34405;SDS011;20658;45.630;8.886;2023-04-25T02:30:00;13.63;;;6.00;;
34405;SDS011;20658;45.630;8.886;2023-04-25T02:32:33;12.70;;;5.55;;
34405;SDS011;20658;45.630;8.886;2023-04-25T02:35:08;15.18;;;6.60;;
34405;SDS011;20658;45.630;8.886;2023-04-25T02:37:41;16.45;;;7.50;;
34405;SDS011;20658;45.630;8.886;2023-04-25T02:40:16;13.35;;;7.00;;
34405;SDS011;20658;45.630;8.886;2023-04-25T02:42:44;11.85;;;7.03;;
34405;SDS011;20658;45.630;8.886;2023-04-25T02:45:18;11.98;;;6.82;;
34405;SDS011;20658;45.630;8.886;2023-04-25T02:47:51;16.30;;;6.32;;
34405;SDS011;20658;45.630;8.886;2023-04-25T02:50:24;11.82;;;6.13;;
34405;SDS011;20658;45.630;8.886;2023-04-25T02:52:58;14.35;;;5.88;;
34405;SDS011;20658;45.630;8.886;2023-04-25T02:55:37;10.27;;;5.60;;
34405;SDS011;20658;45.630;8.886;2023-04-25T02:58:11;9.70;;;4.80;;
34405;SDS011;20658;45.630;8.886;2023-04-25T03:00:48;8.57;;;4.72;;
34405;SDS011;20658;45.630;8.886;2023-04-25T03:03:21;12.05;;;5.78;;
34405;SDS011;20658;45.630;8.886;2023-04-25T03:05:54;14.00;;;7.28;;
34405;SDS011;20658;45.630;8.886;2023-04-25T03:08:31;9.27;;;5.43;;
34405;SDS011;20658;45.630;8.886;2023-04-25T03:11:07;9.48;;;5.85;;
34405;SDS011;20658;45.630;8.886;2023-04-25T03:13:41;10.65;;;5.28;;
34405;SDS011;20658;45.630;8.886;2023-04-25T03:16:14;15.80;;;5.85;;
34405;SDS011;20658;45.630;8.886;2023-04-25T03:18:48;10.07;;;5.47;;
34405;SDS011;20658;45.630;8.886;2023-04-25T03:21:22;12.82;;;5.57;;
34405;SDS011;20658;45.630;8.886;2023-04-25T03:23:57;14.63;;;6.43;;
34405;SDS011;20658;45.630;8.886;2023-04-25T03:26:32;12.70;;;6.30;;
34405;SDS011;20658;45.630;8.886;2023-04-25T03:29:05;14.80;;;6.07;;
34405;SDS011;20658;45.630;8.886;2023-04-25T03:31:40;11.85;;;5.13;;
34405;SDS011;20658;45.630;8.886;2023-04-25T03:34:13;11.13;;;6.40;;
34405;SDS011;20658;45.630;8.886;2023-04-25T03:36:47;11.02;;;4.78;;
34405;SDS011;20658;45.630;8.886;2023-04-25T03:39:20;10.07;;;5.95;;
34405;SDS011;20658;45.630;8.886;2023-04-25T03:41:56;13.27;;;6.75;;
34405;SDS011;20658;45.630;8.886;2023-04-25T03:44:30;10.48;;;5.63;;
34405;SDS011;20658;45.630;8.886;2023-04-25T03:47:03;10.68;;;5.25;;
34405;SDS011;20658;45.630;8.886;2023-04-25T03:49:37;12.60;;;5.68;;
34405;SDS011;20658;45.630;8.886;2023-04-25T03:52:10;11.30;;;5.43;;
34405;SDS011;20658;45.630;8.886;2023-04-25T03:54:44;12.43;;;5.22;;
34405;SDS011;20658;45.630;8.886;2023-04-25T03:57:21;14.05;;;5.93;;
34405;SDS011;20658;45.630;8.886;2023-04-25T03:59:55;11.50;;;5.45;;
34405;SDS011;20658;45.630;8.886;2023-04-25T04:02:38;10.05;;;5.60;;
34405;SDS011;20658;45.630;8.886;2023-04-25T04:05:12;11.07;;;6.00;;
34405;SDS011;20658;45.630;8.886;2023-04-25T04:07:46;14.38;;;6.03;;
34405;SDS011;20658;45.630;8.886;2023-04-25T04:10:20;15.05;;;6.03;;
34405;SDS011;20658;45.630;8.886;2023-04-25T04:12:55;13.82;;;5.85;;
34405;SDS011;20658;45.630;8.886;2023-04-25T04:15:29;10.63;;;4.57;;
34405;SDS011;20658;45.630;8.886;2023-04-25T04:18:04;11.55;;;6.30;;
34405;SDS011;20658;45.630;8.886;2023-04-25T04:20:37;14.60;;;6.38;;
34405;SDS011;20658;45.630;8.886;2023-04-25T04:23:06;10.18;;;5.85;;
34405;SDS011;20658;45.630;8.886;2023-04-25T04:25:39;10.75;;;5.72;;
34405;SDS011;20658;45.630;8.886;2023-04-25T04:28:28;11.65;;;5.53;;
34405;SDS011;20658;45.630;8.886;2023-04-25T04:31:13;11.90;;;5.60;;
34405;SDS011;20658;45.630;8.886;2023-04-25T04:33:48;10.05;;;5.03;;
34405;SDS011;20658;45.630;8.886;2023-04-25T04:36:22;11.23;;;5.50;;
34405;SDS011;20658;45.630;8.886;2023-04-25T04:38:57;12.68;;;5.68;;
34405;SDS011;20658;45.630;8.886;2023-04-25T04:41:35;14.07;;;5.57;;
34405;SDS011;20658;45.630;8.886;2023-04-25T04:44:14;10.63;;;5.20;;
34405;SDS011;20658;45.630;8.886;2023-04-25T04:49:51;7.45;;;4.50;;
34405;SDS011;20658;45.630;8.886;2023-04-25T04:52:59;9.32;;;4.30;;
34405;SDS011;20658;45.630;8.886;2023-04-25T04:55:43;11.80;;;4.85;;
34405;SDS011;20658;45.630;8.886;2023-04-25T04:58:55;10.55;;;3.88;;
34405;SDS011;20658;45.630;8.886;2023-04-25T05:01:53;9.52;;;3.83;;
34405;SDS011;20658;45.630;8.886;2023-04-25T05:04:50;13.55;;;6.20;;
34405;SDS011;20658;45.630;8.886;2023-04-25T05:07:42;7.55;;;3.92;;
34405;SDS011;20658;45.630;8.886;2023-04-25T05:10:51;7.57;;;4.05;;
34405;SDS011;20658;45.630;8.886;2023-04-25T05:13:40;11.20;;;3.65;;
34405;SDS011;20658;45.630;8.886;2023-04-25T05:16:33;7.97;;;3.63;;
34405;SDS011;20658;45.630;8.886;2023-04-25T05:19:27;10.18;;;4.85;;
34405;SDS011;20658;45.630;8.886;2023-04-25T05:22:14;9.68;;;5.03;;
34405;SDS011;20658;45.630;8.886;2023-04-25T05:25:06;8.07;;;3.60;;
34405;SDS011;20658;45.630;8.886;2023-04-25T05:27:56;7.60;;;3.55;;
34405;SDS011;20658;45.630;8.886;2023-04-25T05:33:46;6.25;;;3.42;;
34405;SDS011;20658;45.630;8.886;2023-04-25T05:36:21;6.28;;;3.22;;
34405;SDS011;20658;45.630;8.886;2023-04-25T05:38:50;10.38;;;3.40;;
34405;SDS011;20658;45.630;8.886;2023-04-25T05:41:55;7.55;;;2.72;;
34405;SDS011;20658;45.630;8.886;2023-04-25T05:44:51;6.07;;;3.20;;
34405;SDS011;20658;45.630;8.886;2023-04-25T05:47:31;8.48;;;3.25;;
34405;SDS011;20658;45.630;8.886;2023-04-25T05:50:26;7.75;;;3.85;;
34405;SDS011;20658;45.630;8.886;2023-04-25T05:53:14;10.90;;;3.90;;
34405;SDS011;20658;45.630;8.886;2023-04-25T05:55:53;7.65;;;3.83;;
34405;SDS011;20658;45.630;8.886;2023-04-25T05:58:27;8.02;;;3.08;;
34405;SDS011;20658;45.630;8.886;2023-04-25T06:01:02;4.55;;;2.33;;
34405;SDS011;20658;45.630;8.886;2023-04-25T06:03:35;6.55;;;3.08;;
34405;SDS011;20658;45.630;8.886;2023-04-25T06:06:09;3.83;;;2.17;;
34405;SDS011;20658;45.630;8.886;2023-04-25T06:08:44;6.25;;;2.45;;
34405;SDS011;20658;45.630;8.886;2023-04-25T06:11:18;8.90;;;2.40;;
34405;SDS011;20658;45.630;8.886;2023-04-25T06:13:51;10.13;;;3.58;;
34405;SDS011;20658;45.630;8.886;2023-04-25T06:16:25;5.95;;;2.80;;
34405;SDS011;20658;45.630;8.886;2023-04-25T06:18:58;7.57;;;1.70;;
34405;SDS011;20658;45.630;8.886;2023-04-25T06:21:32;6.22;;;1.88;;
34405;SDS011;20658;45.630;8.886;2023-04-25T06:24:08;3.63;;;1.38;;
34405;SDS011;20658;45.630;8.886;2023-04-25T06:26:41;6.75;;;1.67;;
34405;SDS011;20658;45.630;8.886;2023-04-25T06:29:15;5.10;;;2.15;;
34405;SDS011;20658;45.630;8.886;2023-04-25T06:31:48;6.75;;;2.03;;
34405;SDS011;20658;45.630;8.886;2023-04-25T06:34:22;6.22;;;1.95;;
34405;SDS011;20658;45.630;8.886;2023-04-25T06:36:56;5.95;;;1.50;;
34405;SDS011;20658;45.630;8.886;2023-04-25T06:39:30;4.57;;;2.03;;
34405;SDS011;20658;45.630;8.886;2023-04-25T06:42:03;4.63;;;1.65;;
34405;SDS011;20658;45.630;8.886;2023-04-25T06:44:57;2.28;;;1.50;;
34405;SDS011;20658;45.630;8.886;2023-04-25T06:47:30;2.70;;;1.30;;
34405;SDS011;20658;45.630;8.886;2023-04-25T06:50:04;3.75;;;1.50;;
34405;SDS011;20658;45.630;8.886;2023-04-25T06:52:39;2.75;;;1.35;;
34405;SDS011;20658;45.630;8.886;2023-04-25T06:55:13;7.00;;;1.50;;
34405;SDS011;20658;45.630;8.886;2023-04-25T06:58:08;2.95;;;1.13;;
34405;SDS011;20658;45.630;8.886;2023-04-25T07:01:04;3.50;;;1.35;;
34405;SDS011;20658;45.630;8.886;2023-04-25T07:03:38;3.42;;;1.52;;
34405;SDS011;20658;45.630;8.886;2023-04-25T07:06:16;4.22;;;1.80;;
34405;SDS011;20658;45.630;8.886;2023-04-25T07:08:44;2.33;;;1.48;;
34405;SDS011;20658;45.630;8.886;2023-04-25T07:11:14;4.30;;;1.52;;
34405;SDS011;20658;45.630;8.886;2023-04-25T07:13:47;2.83;;;1.70;;
34405;SDS011;20658;45.630;8.886;2023-04-25T07:16:20;4.93;;;1.40;;
34405;SDS011;20658;45.630;8.886;2023-04-25T07:18:54;4.72;;;1.75;;
34405;SDS011;20658;45.630;8.886;2023-04-25T07:21:28;5.30;;;1.73;;
34405;SDS011;20658;45.630;8.886;2023-04-25T07:24:03;2.97;;;1.50;;
34405;SDS011;20658;45.630;8.886;2023-04-25T07:26:42;7.45;;;1.77;;
34405;SDS011;20658;45.630;8.886;2023-04-25T07:29:25;5.80;;;1.38;;
34405;SDS011;20658;45.630;8.886;2023-04-25T07:31:59;6.22;;;1.90;;
34405;SDS011;20658;45.630;8.886;2023-04-25T07:34:28;4.35;;;1.73;;
34405;SDS011;20658;45.630;8.886;2023-04-25T07:37:02;4.18;;;2.00;;
34405;SDS011;20658;45.630;8.886;2023-04-25T07:39:44;2.90;;;1.67;;
34405;SDS011;20658;45.630;8.886;2023-04-25T07:42:19;3.22;;;1.80;;
34405;SDS011;20658;45.630;8.886;2023-04-25T07:44:53;4.70;;;1.50;;
34405;SDS011;20658;45.630;8.886;2023-04-25T07:47:26;3.65;;;1.48;;
34405;SDS011;20658;45.630;8.886;2023-04-25T07:49:59;5.97;;;1.80;;
34405;SDS011;20658;45.630;8.886;2023-04-25T07:52:33;5.57;;;1.75;;
34405;SDS011;20658;45.630;8.886;2023-04-25T07:55:26;4.03;;;1.52;;
34405;SDS011;20658;45.630;8.886;2023-04-25T07:58:07;4.45;;;1.42;;
34405;SDS011;20658;45.630;8.886;2023-04-25T08:00:43;4.80;;;1.83;;
34405;SDS011;20658;45.630;8.886;2023-04-25T08:03:43;4.00;;;1.38;;
34405;SDS011;20658;45.630;8.886;2023-04-25T08:06:24;9.05;;;1.88;;
34405;SDS011;20658;45.630;8.886;2023-04-25T08:09:15;3.90;;;1.10;;
34405;SDS011;20658;45.630;8.886;2023-04-25T08:11:50;3.97;;;1.27;;
34405;SDS011;20658;45.630;8.886;2023-04-25T08:14:29;2.88;;;1.25;;
34405;SDS011;20658;45.630;8.886;2023-04-25T08:17:07;6.15;;;1.30;;
34405;SDS011;20658;45.630;8.886;2023-04-25T08:19:40;3.17;;;1.25;;
34405;SDS011;20658;45.630;8.886;2023-04-25T08:22:22;6.22;;;1.40;;
34405;SDS011;20658;45.630;8.886;2023-04-25T08:24:59;5.13;;;1.48;;
34405;SDS011;20658;45.630;8.886;2023-04-25T08:27:32;3.60;;;1.33;;
34405;SDS011;20658;45.630;8.886;2023-04-25T08:30:08;3.47;;;1.60;;
34405;SDS011;20658;45.630;8.886;2023-04-25T08:32:42;3.22;;;1.48;;
34405;SDS011;20658;45.630;8.886;2023-04-25T08:35:34;5.72;;;1.95;;
34405;SDS011;20658;45.630;8.886;2023-04-25T08:38:03;6.20;;;2.03;;
34405;SDS011;20658;45.630;8.886;2023-04-25T08:40:37;5.53;;;1.50;;
34405;SDS011;20658;45.630;8.886;2023-04-25T08:43:15;8.00;;;1.83;;
34405;SDS011;20658;45.630;8.886;2023-04-25T08:45:53;5.63;;;1.70;;
34405;SDS011;20658;45.630;8.886;2023-04-25T08:48:37;6.88;;;2.00;;
34405;SDS011;20658;45.630;8.886;2023-04-25T08:51:08;8.60;;;2.85;;
34405;SDS011;20658;45.630;8.886;2023-04-25T08:53:42;4.10;;;1.52;;
34405;SDS011;20658;45.630;8.886;2023-04-25T08:56:17;4.35;;;1.80;;
34405;SDS011;20658;45.630;8.886;2023-04-25T08:58:53;7.13;;;2.22;;
34405;SDS011;20658;45.630;8.886;2023-04-25T09:01:29;4.65;;;1.80;;
34405;SDS011;20658;45.630;8.886;2023-04-25T09:04:03;6.35;;;1.90;;
34405;SDS011;20658;45.630;8.886;2023-04-25T09:06:36;6.18;;;2.30;;
34405;SDS011;20658;45.630;8.886;2023-04-25T09:09:10;5.82;;;1.77;;
34405;SDS011;20658;45.630;8.886;2023-04-25T09:11:43;5.18;;;2.40;;
34405;SDS011;20658;45.630;8.886;2023-04-25T09:14:18;7.45;;;1.63;;
34405;SDS011;20658;45.630;8.886;2023-04-25T09:17:11;3.72;;;1.70;;
34405;SDS011;20658;45.630;8.886;2023-04-25T09:19:51;6.03;;;2.25;;
34405;SDS011;20658;45.630;8.886;2023-04-25T09:22:27;4.28;;;1.90;;
34405;SDS011;20658;45.630;8.886;2023-04-25T09:25:07;4.10;;;1.83;;
34405;SDS011;20658;45.630;8.886;2023-04-25T09:27:49;7.07;;;1.95;;
34405;SDS011;20658;45.630;8.886;2023-04-25T09:30:31;7.43;;;2.13;;
34405;SDS011;20658;45.630;8.886;2023-04-25T09:33:11;7.07;;;1.90;;
34405;SDS011;20658;45.630;8.886;2023-04-25T09:35:48;4.43;;;1.70;;
34405;SDS011;20658;45.630;8.886;2023-04-25T09:38:45;7.78;;;2.22;;
34405;SDS011;20658;45.630;8.886;2023-04-25T09:41:27;3.95;;;2.25;;
34405;SDS011;20658;45.630;8.886;2023-04-25T09:44:01;6.38;;;2.70;;
34405;SDS011;20658;45.630;8.886;2023-04-25T09:46:36;3.90;;;1.85;;
34405;SDS011;20658;45.630;8.886;2023-04-25T09:49:19;8.75;;;2.50;;
34405;SDS011;20658;45.630;8.886;2023-04-25T09:51:59;7.00;;;2.20;;
34405;SDS011;20658;45.630;8.886;2023-04-25T09:54:40;5.20;;;2.30;;
34405;SDS011;20658;45.630;8.886;2023-04-25T09:57:18;4.90;;;2.20;;
34405;SDS011;20658;45.630;8.886;2023-04-25T09:59:55;4.47;;;2.13;;
34405;SDS011;20658;45.630;8.886;2023-04-25T10:02:39;9.30;;;2.22;;
34405;SDS011;20658;45.630;8.886;2023-04-25T10:05:39;7.43;;;2.67;;
34405;SDS011;20658;45.630;8.886;2023-04-25T10:08:16;9.80;;;3.38;;
34405;SDS011;20658;45.630;8.886;2023-04-25T10:10:51;18.60;;;7.80;;
34405;SDS011;20658;45.630;8.886;2023-04-25T10:13:24;10.90;;;4.20;;
34405;SDS011;20658;45.630;8.886;2023-04-25T10:15:58;12.98;;;4.43;;
34405;SDS011;20658;45.630;8.886;2023-04-25T10:18:33;9.35;;;3.92;;
34405;SDS011;20658;45.630;8.886;2023-04-25T10:21:07;6.05;;;2.20;;
34405;SDS011;20658;45.630;8.886;2023-04-25T10:23:41;6.35;;;2.38;;
34405;SDS011;20658;45.630;8.886;2023-04-25T10:26:15;12.45;;;3.25;;
34405;SDS011;20658;45.630;8.886;2023-04-25T10:28:55;7.00;;;2.35;;
34405;SDS011;20658;45.630;8.886;2023-04-25T10:31:30;9.10;;;2.90;;
34405;SDS011;20658;45.630;8.886;2023-04-25T10:34:03;5.68;;;2.90;;
34405;SDS011;20658;45.630;8.886;2023-04-25T10:36:39;7.55;;;2.65;;
34405;SDS011;20658;45.630;8.886;2023-04-25T10:39:07;7.93;;;2.58;;
34405;SDS011;20658;45.630;8.886;2023-04-25T10:41:47;5.22;;;2.40;;
34405;SDS011;20658;45.630;8.886;2023-04-25T10:44:26;5.07;;;2.17;;
34405;SDS011;20658;45.630;8.886;2023-04-25T10:47:00;6.78;;;2.75;;
34405;SDS011;20658;45.630;8.886;2023-04-25T10:49:37;9.85;;;2.95;;
34405;SDS011;20658;45.630;8.886;2023-04-25T10:52:16;6.22;;;2.70;;
34405;SDS011;20658;45.630;8.886;2023-04-25T10:54:57;11.57;;;3.72;;
34405;SDS011;20658;45.630;8.886;2023-04-25T10:57:33;7.88;;;3.05;;
34405;SDS011;20658;45.630;8.886;2023-04-25T11:00:12;6.13;;;2.60;;
34405;SDS011;20658;45.630;8.886;2023-04-25T11:02:48;11.27;;;2.65;;
34405;SDS011;20658;45.630;8.886;2023-04-25T11:05:29;7.60;;;3.08;;
34405;SDS011;20658;45.630;8.886;2023-04-25T11:08:06;7.47;;;2.70;;
34405;SDS011;20658;45.630;8.886;2023-04-25T11:10:45;6.35;;;2.10;;
34405;SDS011;20658;45.630;8.886;2023-04-25T11:13:20;5.63;;;2.38;;
34405;SDS011;20658;45.630;8.886;2023-04-25T11:15:53;6.57;;;3.10;;
34405;SDS011;20658;45.630;8.886;2023-04-25T11:18:26;8.00;;;2.45;;
34405;SDS011;20658;45.630;8.886;2023-04-25T11:20:59;7.63;;;3.63;;
34405;SDS011;20658;45.630;8.886;2023-04-25T11:23:35;6.85;;;2.50;;
34405;SDS011;20658;45.630;8.886;2023-04-25T11:26:08;5.10;;;2.17;;
34405;SDS011;20658;45.630;8.886;2023-04-25T11:28:44;14.85;;;4.47;;
34405;SDS011;20658;45.630;8.886;2023-04-25T11:31:19;5.72;;;2.55;;
34405;SDS011;20658;45.630;8.886;2023-04-25T11:33:53;4.20;;;1.80;;
34405;SDS011;20658;45.630;8.886;2023-04-25T11:36:29;8.35;;;2.25;;
34405;SDS011;20658;45.630;8.886;2023-04-25T11:39:04;7.57;;;2.15;;
34405;SDS011;20658;45.630;8.886;2023-04-25T11:41:38;9.38;;;3.30;;
34405;SDS011;20658;45.630;8.886;2023-04-25T11:44:11;7.53;;;2.42;;
34405;SDS011;20658;45.630;8.886;2023-04-25T11:46:48;10.10;;;3.42;;
34405;SDS011;20658;45.630;8.886;2023-04-25T11:49:21;7.88;;;3.10;;
34405;SDS011;20658;45.630;8.886;2023-04-25T11:51:56;6.18;;;2.40;;
34405;SDS011;20658;45.630;8.886;2023-04-25T11:54:30;5.05;;;1.92;;
34405;SDS011;20658;45.630;8.886;2023-04-25T11:57:04;6.70;;;2.13;;
34405;SDS011;20658;45.630;8.886;2023-04-25T11:59:37;5.13;;;2.10;;
34405;SDS011;20658;45.630;8.886;2023-04-25T12:02:23;7.72;;;2.35;;
34405;SDS011;20658;45.630;8.886;2023-04-25T12:04:58;7.97;;;2.00;;
34405;SDS011;20658;45.630;8.886;2023-04-25T12:07:32;4.50;;;2.15;;
34405;SDS011;20658;45.630;8.886;2023-04-25T12:10:07;8.68;;;2.60;;
34405;SDS011;20658;45.630;8.886;2023-04-25T12:12:43;11.65;;;4.00;;
34405;SDS011;20658;45.630;8.886;2023-04-25T12:15:23;5.72;;;2.47;;
34405;SDS011;20658;45.630;8.886;2023-04-25T12:17:57;6.25;;;3.10;;
34405;SDS011;20658;45.630;8.886;2023-04-25T12:20:31;4.85;;;2.00;;
34405;SDS011;20658;45.630;8.886;2023-04-25T12:23:05;6.53;;;1.58;;
34405;SDS011;20658;45.630;8.886;2023-04-25T12:25:41;4.85;;;2.05;;
34405;SDS011;20658;45.630;8.886;2023-04-25T12:28:18;5.78;;;1.70;;
34405;SDS011;20658;45.630;8.886;2023-04-25T12:30:55;11.27;;;2.65;;
34405;SDS011;20658;45.630;8.886;2023-04-25T12:33:32;7.65;;;2.38;;
34405;SDS011;20658;45.630;8.886;2023-04-25T12:36:07;8.20;;;2.72;;
34405;SDS011;20658;45.630;8.886;2023-04-25T12:38:42;7.22;;;1.60;;
34405;SDS011;20658;45.630;8.886;2023-04-25T12:41:17;12.18;;;2.42;;
34405;SDS011;20658;45.630;8.886;2023-04-25T12:43:50;12.60;;;3.05;;
34405;SDS011;20658;45.630;8.886;2023-04-25T12:46:25;10.30;;;2.80;;
34405;SDS011;20658;45.630;8.886;2023-04-25T12:48:58;15.50;;;5.50;;
34405;SDS011;20658;45.630;8.886;2023-04-25T12:51:31;8.13;;;2.63;;
34405;SDS011;20658;45.630;8.886;2023-04-25T12:54:05;7.72;;;2.03;;
34405;SDS011;20658;45.630;8.886;2023-04-25T12:56:41;6.35;;;2.20;;
34405;SDS011;20658;45.630;8.886;2023-04-25T12:59:10;5.70;;;1.70;;
34405;SDS011;20658;45.630;8.886;2023-04-25T13:01:44;3.67;;;1.70;;
34405;SDS011;20658;45.630;8.886;2023-04-25T13:04:17;5.22;;;1.60;;
34405;SDS011;20658;45.630;8.886;2023-04-25T13:06:47;5.60;;;1.73;;
34405;SDS011;20658;45.630;8.886;2023-04-25T13:09:20;9.07;;;1.50;;
34405;SDS011;20658;45.630;8.886;2023-04-25T13:11:55;6.35;;;1.15;;
34405;SDS011;20658;45.630;8.886;2023-04-25T13:14:29;5.93;;;1.30;;
34405;SDS011;20658;45.630;8.886;2023-04-25T13:17:02;9.43;;;1.77;;
34405;SDS011;20658;45.630;8.886;2023-04-25T13:19:38;4.95;;;2.00;;
34405;SDS011;20658;45.630;8.886;2023-04-25T13:22:11;2.22;;;1.63;;
34405;SDS011;20658;45.630;8.886;2023-04-25T13:24:46;4.65;;;2.05;;
34405;SDS011;20658;45.630;8.886;2023-04-25T13:27:21;4.28;;;1.20;;
34405;SDS011;20658;45.630;8.886;2023-04-25T13:29:54;3.42;;;1.20;;
34405;SDS011;20658;45.630;8.886;2023-04-25T13:32:27;1.38;;;0.70;;
34405;SDS011;20658;45.630;8.886;2023-04-25T13:35:01;4.82;;;1.13;;
34405;SDS011;20658;45.630;8.886;2023-04-25T13:37:37;3.35;;;1.00;;
34405;SDS011;20658;45.630;8.886;2023-04-25T13:40:11;5.38;;;1.30;;
34405;SDS011;20658;45.630;8.886;2023-04-25T13:42:46;2.15;;;0.90;;
34405;SDS011;20658;45.630;8.886;2023-04-25T13:45:19;5.35;;;1.20;;
34405;SDS011;20658;45.630;8.886;2023-04-25T13:47:55;3.05;;;1.13;;
34405;SDS011;20658;45.630;8.886;2023-04-25T13:50:32;3.05;;;1.10;;
34405;SDS011;20658;45.630;8.886;2023-04-25T13:53:05;5.95;;;1.67;;
34405;SDS011;20658;45.630;8.886;2023-04-25T13:55:38;6.32;;;1.38;;
34405;SDS011;20658;45.630;8.886;2023-04-25T13:58:13;4.68;;;1.60;;
34405;SDS011;20658;45.630;8.886;2023-04-25T14:00:46;3.65;;;0.90;;
34405;SDS011;20658;45.630;8.886;2023-04-25T14:03:20;10.43;;;4.00;;
34405;SDS011;20658;45.630;8.886;2023-04-25T14:05:53;2.90;;;1.00;;
34405;SDS011;20658;45.630;8.886;2023-04-25T14:08:26;2.20;;;1.00;;
34405;SDS011;20658;45.630;8.886;2023-04-25T14:11:00;4.65;;;1.13;;
34405;SDS011;20658;45.630;8.886;2023-04-25T14:13:36;6.05;;;2.05;;
34405;SDS011;20658;45.630;8.886;2023-04-25T14:16:10;3.08;;;1.38;;
34405;SDS011;20658;45.630;8.886;2023-04-25T14:18:43;5.72;;;2.00;;
34405;SDS011;20658;45.630;8.886;2023-04-25T14:21:19;4.75;;;1.98;;
34405;SDS011;20658;45.630;8.886;2023-04-25T14:23:53;5.43;;;1.65;;
34405;SDS011;20658;45.630;8.886;2023-04-25T14:26:26;4.40;;;1.40;;
34405;SDS011;20658;45.630;8.886;2023-04-25T14:28:56;3.65;;;0.90;;
34405;SDS011;20658;45.630;8.886;2023-04-25T14:31:32;7.93;;;3.33;;
34405;SDS011;20658;45.630;8.886;2023-04-25T14:34:08;4.53;;;1.30;;
34405;SDS011;20658;45.630;8.886;2023-04-25T14:36:42;2.58;;;1.10;;
34405;SDS011;20658;45.630;8.886;2023-04-25T14:39:17;7.40;;;2.50;;
34405;SDS011;20658;45.630;8.886;2023-04-25T14:41:51;2.90;;;1.10;;
34405;SDS011;20658;45.630;8.886;2023-04-25T14:44:25;4.35;;;1.63;;
34405;SDS011;20658;45.630;8.886;2023-04-25T14:46:59;3.47;;;0.93;;
34405;SDS011;20658;45.630;8.886;2023-04-25T14:49:32;3.22;;;1.08;;
34405;SDS011;20658;45.630;8.886;2023-04-25T14:52:05;3.60;;;0.60;;
34405;SDS011;20658;45.630;8.886;2023-04-25T14:54:38;3.92;;;0.73;;
34405;SDS011;20658;45.630;8.886;2023-04-25T14:57:12;2.17;;;1.05;;
34405;SDS011;20658;45.630;8.886;2023-04-25T14:59:46;1.67;;;0.60;;
34405;SDS011;20658;45.630;8.886;2023-04-25T15:02:20;1.58;;;0.65;;
34405;SDS011;20658;45.630;8.886;2023-04-25T15:04:53;0.95;;;0.40;;
34405;SDS011;20658;45.630;8.886;2023-04-25T15:07:26;1.52;;;0.38;;
34405;SDS011;20658;45.630;8.886;2023-04-25T15:10:00;1.98;;;0.40;;
34405;SDS011;20658;45.630;8.886;2023-04-25T15:12:34;0.63;;;0.35;;
34405;SDS011;20658;45.630;8.886;2023-04-25T15:15:09;1.15;;;0.20;;
34405;SDS011;20658;45.630;8.886;2023-04-25T15:17:43;1.75;;;0.68;;
34405;SDS011;20658;45.630;8.886;2023-04-25T15:20:17;2.10;;;0.30;;
34405;SDS011;20658;45.630;8.886;2023-04-25T15:22:50;0.70;;;0.30;;
34405;SDS011;20658;45.630;8.886;2023-04-25T15:25:23;1.13;;;0.40;;
34405;SDS011;20658;45.630;8.886;2023-04-25T15:27:52;2.17;;;0.40;;
34405;SDS011;20658;45.630;8.886;2023-04-25T15:30:27;4.18;;;0.68;;
34405;SDS011;20658;45.630;8.886;2023-04-25T15:33:01;1.75;;;0.50;;
34405;SDS011;20658;45.630;8.886;2023-04-25T15:35:34;0.80;;;0.30;;
34405;SDS011;20658;45.630;8.886;2023-04-25T15:38:07;0.25;;;0.20;;
34405;SDS011;20658;45.630;8.886;2023-04-25T15:40:41;2.63;;;0.40;;
34405;SDS011;20658;45.630;8.886;2023-04-25T15:43:15;2.83;;;0.70;;
34405;SDS011;20658;45.630;8.886;2023-04-25T15:45:50;0.63;;;0.40;;